Terminal Aerodrome Forecast
Issued by NWS North Platte, NE

Home | Current Version | Previous Version | Graphics & Text | Print | Product List | Glossary On
Versions: 1 2 3 4 5 6 7 8 9 10 11 12 13
000
FTUS43 KLBF 160520
TAFVTN
TAF
KVTN 160520Z 1606/1706 VRB04KT P6SM SKC
     FM161500 21008KT P6SM SKC
     FM161800 24013KT P6SM SKC
     FM170000 30005KT P6SM FEW250=

USA.gov is the U.S. government's official web portal to all federal, state and local government web resources and services.